createdAt,value
2018-03-17T00:01:59.187Z,12.70
2018-03-17T00:04:26.649Z,13.57
2018-03-17T00:06:54.144Z,14.37
2018-03-17T00:09:21.730Z,15.30
2018-03-17T00:11:49.204Z,14.30
2018-03-17T00:14:17.121Z,14.07
2018-03-17T00:16:44.609Z,13.17
2018-03-17T00:19:12.180Z,13.37
2018-03-17T00:21:39.701Z,12.57
2018-03-17T00:24:07.238Z,13.30
2018-03-17T00:26:34.723Z,11.23
2018-03-17T00:29:02.290Z,11.57
2018-03-17T00:31:29.804Z,12.10
2018-03-17T00:33:57.359Z,11.10
2018-03-17T00:36:24.886Z,11.77
2018-03-17T00:38:52.376Z,12.77
2018-03-17T00:41:19.928Z,12.50
2018-03-17T00:43:47.564Z,13.13
2018-03-17T00:46:15.088Z,11.20
2018-03-17T00:48:42.591Z,11.90
2018-03-17T00:51:10.094Z,13.03
2018-03-17T00:53:38.428Z,13.50
2018-03-17T00:56:05.929Z,12.20
2018-03-17T00:58:33.448Z,12.33
2018-03-17T01:01:01.022Z,14.40
2018-03-17T01:03:28.578Z,13.77
2018-03-17T01:05:56.088Z,13.53
2018-03-17T01:08:23.620Z,11.77
2018-03-17T01:10:51.773Z,13.57
2018-03-17T01:13:20.044Z,14.27
2018-03-17T01:15:48.088Z,13.20
2018-03-17T01:18:16.723Z,14.00
2018-03-17T01:20:44.234Z,13.00
2018-03-17T01:23:11.967Z,13.37
2018-03-17T01:25:40.870Z,13.93
2018-03-17T01:28:08.444Z,14.23
2018-03-17T01:30:35.989Z,15.30
2018-03-17T01:33:03.551Z,14.00
2018-03-17T01:35:31.106Z,14.00
2018-03-17T01:37:58.795Z,14.67
2018-03-17T01:40:27.387Z,14.77
2018-03-17T01:42:55.001Z,13.97
2018-03-17T01:45:22.993Z,14.27
2018-03-17T01:47:50.560Z,15.77
2018-03-17T01:50:18.513Z,17.13
2018-03-17T01:52:46.088Z,16.70
2018-03-17T01:55:14.272Z,16.47
2018-03-17T01:57:42.176Z,16.60
2018-03-17T02:00:09.731Z,14.90
2018-03-17T02:02:37.396Z,15.57
2018-03-17T02:05:04.945Z,18.60
2018-03-17T02:07:32.840Z,18.07
2018-03-17T02:10:00.378Z,16.90
2018-03-17T02:12:28.303Z,17.83
2018-03-17T02:14:55.853Z,16.73
2018-03-17T02:17:23.370Z,16.40
2018-03-17T02:19:51.357Z,18.47
2018-03-17T02:22:19.000Z,16.17
2018-03-17T02:24:47.471Z,16.93
2018-03-17T02:27:14.973Z,16.70
2018-03-17T02:29:42.511Z,17.50
2018-03-17T02:32:10.452Z,17.70
2018-03-17T02:34:37.966Z,15.60
2018-03-17T02:37:05.883Z,18.63
2018-03-17T02:39:33.378Z,17.30
2018-03-17T02:42:00.928Z,16.03
2018-03-17T02:44:28.422Z,17.53
2018-03-17T02:46:55.950Z,16.40
2018-03-17T02:49:25.608Z,17.10
2018-03-17T02:51:53.155Z,15.47
2018-03-17T02:54:21.248Z,15.93
2018-03-17T02:56:48.819Z,16.63
2018-03-17T02:59:16.437Z,16.07
2018-03-17T03:01:43.974Z,16.37
2018-03-17T03:04:11.630Z,15.70
2018-03-17T03:06:39.211Z,17.73
2018-03-17T03:09:06.721Z,16.00
2018-03-17T03:11:34.685Z,15.80
2018-03-17T03:14:02.686Z,17.67
2018-03-17T03:16:30.259Z,17.07
2018-03-17T03:18:57.788Z,15.10
2018-03-17T03:21:25.716Z,16.70
2018-03-17T03:23:53.272Z,16.40
2018-03-17T03:26:20.819Z,15.00
2018-03-17T03:28:48.382Z,16.80
2018-03-17T03:31:15.948Z,16.50
2018-03-17T03:33:43.495Z,15.90
2018-03-17T03:36:11.058Z,15.60
2018-03-17T03:38:39.036Z,15.93
2018-03-17T03:41:06.579Z,15.73
2018-03-17T03:43:34.122Z,15.30
2018-03-17T03:46:01.839Z,16.67
2018-03-17T03:48:29.409Z,18.00
2018-03-17T03:50:57.009Z,15.77
2018-03-17T03:53:24.574Z,14.60
2018-03-17T03:55:53.087Z,16.43
2018-03-17T03:58:21.013Z,16.63
2018-03-17T04:00:48.615Z,16.53
2018-03-17T04:03:16.175Z,15.30
2018-03-17T04:05:44.089Z,15.67
2018-03-17T04:08:11.621Z,17.27
2018-03-17T04:10:39.527Z,16.20
2018-03-17T04:13:07.050Z,17.13
2018-03-17T04:15:34.755Z,16.97
2018-03-17T04:18:02.324Z,17.57
2018-03-17T04:20:29.905Z,16.50
2018-03-17T04:22:57.444Z,16.80
2018-03-17T04:25:24.965Z,16.80
2018-03-17T04:27:53.703Z,17.50
2018-03-17T04:30:21.239Z,17.40
2018-03-17T04:32:49.176Z,16.03
2018-03-17T04:35:18.572Z,18.07
2018-03-17T04:37:46.647Z,14.90
2018-03-17T04:40:14.678Z,15.50
2018-03-17T04:42:42.687Z,14.13
2018-03-17T04:45:10.625Z,16.40
2018-03-17T04:47:38.513Z,15.23
2018-03-17T04:50:06.060Z,14.00
2018-03-17T04:52:34.153Z,14.37
2018-03-17T04:55:01.681Z,15.70
2018-03-17T04:57:29.679Z,15.07
2018-03-17T04:59:57.223Z,17.27
2018-03-17T05:02:24.788Z,15.20
2018-03-17T05:04:52.728Z,16.00
2018-03-17T05:07:20.256Z,16.10
2018-03-17T05:09:47.928Z,15.30
2018-03-17T05:12:16.672Z,17.00
2018-03-17T05:14:44.605Z,15.50
2018-03-17T05:17:12.120Z,15.50
2018-03-17T05:19:40.016Z,14.80
2018-03-17T05:22:07.620Z,15.50
2018-03-17T05:24:35.153Z,16.83
2018-03-17T05:27:02.895Z,14.83
2018-03-17T05:29:30.816Z,16.60
2018-03-17T05:31:58.863Z,15.10
2018-03-17T05:34:27.059Z,16.50
2018-03-17T05:36:54.626Z,15.60
2018-03-17T05:39:22.156Z,14.87
2018-03-17T05:41:50.126Z,16.90
2018-03-17T05:44:18.030Z,14.60
2018-03-17T05:46:45.537Z,15.23
2018-03-17T05:49:13.476Z,15.43
2018-03-17T05:51:40.973Z,16.50
2018-03-17T05:54:08.918Z,17.13
2018-03-17T05:56:36.544Z,15.17
2018-03-17T05:59:04.081Z,16.00
2018-03-17T06:01:32.045Z,14.83
2018-03-17T06:03:59.602Z,16.13
2018-03-17T06:06:27.123Z,15.23
2018-03-17T06:08:56.764Z,17.37
2018-03-17T06:11:24.302Z,15.43
2018-03-17T06:13:51.828Z,16.47
2018-03-17T06:16:19.803Z,16.53
2018-03-17T06:18:47.773Z,16.67
2018-03-17T06:21:15.697Z,16.90
2018-03-17T06:23:43.362Z,15.47
2018-03-17T06:26:10.936Z,16.87
2018-03-17T06:28:38.439Z,14.93
2018-03-17T06:31:05.967Z,15.87
2018-03-17T06:33:33.477Z,14.80
2018-03-17T06:36:01.468Z,16.03
2018-03-17T06:38:29.029Z,16.10
2018-03-17T06:40:56.586Z,17.40
2018-03-17T06:43:24.096Z,15.60
2018-03-17T06:45:52.610Z,17.07
2018-03-17T06:48:20.548Z,14.90
2018-03-17T06:50:50.273Z,14.83
2018-03-17T06:53:17.821Z,15.47
2018-03-17T06:55:45.359Z,16.00
2018-03-17T06:58:12.908Z,14.40
2018-03-17T07:00:40.476Z,16.20
2018-03-17T07:03:08.400Z,16.63
2018-03-17T07:05:35.959Z,16.53
2018-03-17T07:08:03.552Z,14.63
2018-03-17T07:10:31.466Z,16.10
2018-03-17T07:12:59.004Z,15.40
2018-03-17T07:15:26.527Z,15.10
2018-03-17T07:17:54.060Z,16.00
2018-03-17T07:20:21.571Z,14.73
2018-03-17T07:22:49.481Z,15.33
2018-03-17T07:25:17.076Z,13.90
2018-03-17T07:27:44.637Z,15.60
2018-03-17T07:30:12.297Z,14.70
2018-03-17T07:32:39.804Z,14.20
2018-03-17T07:35:07.376Z,15.93
2018-03-17T07:37:35.301Z,16.27
2018-03-17T07:40:02.834Z,14.50
2018-03-17T07:42:30.425Z,13.53
2018-03-17T07:44:58.781Z,13.93
2018-03-17T07:47:26.323Z,16.77
2018-03-17T07:49:55.442Z,15.17
2018-03-17T07:52:23.080Z,16.03
2018-03-17T07:54:51.051Z,13.83
2018-03-17T07:57:19.007Z,14.27
2018-03-17T07:59:46.781Z,14.80
2018-03-17T08:02:14.506Z,13.80
2018-03-17T08:04:42.084Z,13.37
2018-03-17T08:07:11.013Z,14.13
2018-03-17T08:09:39.268Z,13.87
2018-03-17T08:12:06.758Z,14.17
2018-03-17T08:14:34.389Z,14.60
2018-03-17T08:17:01.903Z,13.10
2018-03-17T08:19:29.869Z,14.00
2018-03-17T08:21:57.826Z,15.27
2018-03-17T08:24:25.775Z,14.00
2018-03-17T08:26:53.311Z,14.90
2018-03-17T08:29:20.835Z,14.30
2018-03-17T08:31:49.636Z,13.37
2018-03-17T08:34:17.298Z,13.70
2018-03-17T08:36:45.210Z,13.13
2018-03-17T08:39:12.727Z,12.87
2018-03-17T08:41:40.247Z,14.40
2018-03-17T08:44:07.792Z,13.10
2018-03-17T08:46:35.360Z,13.17
2018-03-17T08:49:02.912Z,14.23
2018-03-17T08:51:30.440Z,12.80
2018-03-17T08:53:58.360Z,14.23
2018-03-17T08:56:25.931Z,13.80
2018-03-17T08:58:53.871Z,15.20
2018-03-17T09:01:21.497Z,15.43
2018-03-17T09:03:49.018Z,12.87
2018-03-17T09:06:16.577Z,12.97
2018-03-17T09:08:44.718Z,12.30
2018-03-17T09:11:13.193Z,12.70
2018-03-17T09:13:40.752Z,13.60
2018-03-17T09:16:08.263Z,12.43
2018-03-17T09:18:35.823Z,14.50
2018-03-17T09:21:04.534Z,12.50
2018-03-17T09:23:32.073Z,14.10
2018-03-17T09:25:59.596Z,13.90
2018-03-17T09:28:27.168Z,12.70
2018-03-17T09:30:54.776Z,12.10
2018-03-17T09:33:22.282Z,12.90
2018-03-17T09:35:49.787Z,12.17
2018-03-17T09:38:17.682Z,11.40
2018-03-17T09:40:45.159Z,12.63
2018-03-17T09:43:12.770Z,14.07
2018-03-17T09:45:40.669Z,12.50
2018-03-17T09:48:08.171Z,13.47
2018-03-17T09:50:36.988Z,12.77
2018-03-17T09:53:04.953Z,11.40
2018-03-17T09:55:32.436Z,12.17
2018-03-17T09:58:00.371Z,13.07
2018-03-17T10:00:27.881Z,12.60
2018-03-17T10:02:56.026Z,11.60
2018-03-17T10:05:24.360Z,12.10
2018-03-17T10:07:51.966Z,11.90
2018-03-17T10:10:19.843Z,11.83
2018-03-17T10:12:47.336Z,11.60
2018-03-17T10:15:15.234Z,12.20
2018-03-17T10:17:42.743Z,13.10
2018-03-17T10:20:10.314Z,12.73
2018-03-17T10:22:38.292Z,11.83
2018-03-17T10:25:06.280Z,13.23
2018-03-17T10:27:34.217Z,11.80
2018-03-17T10:30:01.774Z,11.33
2018-03-17T10:32:29.244Z,12.40
2018-03-17T10:34:56.762Z,12.13
2018-03-17T10:37:24.273Z,11.60
2018-03-17T10:39:51.782Z,12.50
2018-03-17T10:42:19.292Z,11.33
2018-03-17T10:44:46.825Z,12.40
2018-03-17T10:47:15.115Z,10.70
2018-03-17T10:49:42.625Z,12.57
2018-03-17T10:52:10.504Z,10.80
2018-03-17T10:54:38.435Z,11.63
2018-03-17T10:57:06.017Z,11.83
2018-03-17T10:59:33.840Z,12.40
2018-03-17T11:02:05.158Z,11.13
2018-03-17T11:04:33.039Z,12.03
2018-03-17T11:07:00.914Z,12.40
2018-03-17T11:09:28.404Z,10.73
2018-03-17T11:11:55.902Z,10.97
2018-03-17T11:14:23.388Z,11.27
2018-03-17T11:16:51.297Z,10.83
2018-03-17T11:19:18.803Z,11.63
2018-03-17T11:21:46.282Z,12.90
2018-03-17T11:24:14.192Z,11.10
2018-03-17T11:26:41.717Z,11.10
2018-03-17T11:29:09.233Z,11.87
2018-03-17T11:31:36.786Z,11.27
2018-03-17T11:34:04.253Z,11.30
2018-03-17T11:36:31.784Z,9.97
2018-03-17T11:38:59.436Z,11.10
2018-03-17T11:41:27.606Z,12.13
2018-03-17T11:43:55.489Z,13.47
2018-03-17T11:46:23.383Z,11.87
2018-03-17T11:48:50.916Z,10.87
2018-03-17T11:51:18.378Z,11.40
2018-03-17T11:53:46.296Z,12.03
2018-03-17T11:56:13.809Z,11.93
2018-03-17T11:58:41.774Z,10.67
2018-03-17T12:01:09.254Z,11.30
2018-03-17T12:03:36.817Z,10.87
2018-03-17T12:06:04.695Z,10.27
2018-03-17T12:08:32.562Z,10.03
2018-03-17T12:11:00.523Z,10.90
2018-03-17T12:13:28.421Z,11.13
2018-03-17T12:15:55.955Z,10.97
2018-03-17T12:18:23.956Z,11.73
2018-03-17T12:20:51.870Z,11.03
2018-03-17T12:23:19.383Z,11.20
2018-03-17T12:25:47.267Z,10.57
2018-03-17T12:28:14.746Z,11.40
2018-03-17T12:30:42.504Z,11.47
2018-03-17T12:33:10.009Z,11.40
2018-03-17T12:35:37.508Z,12.47
2018-03-17T12:38:05.028Z,10.20
2018-03-17T12:40:32.594Z,10.40
2018-03-17T12:43:00.104Z,12.60
2018-03-17T12:45:27.663Z,11.93
2018-03-17T12:47:57.624Z,11.37
2018-03-17T12:50:25.293Z,10.87
2018-03-17T12:52:52.841Z,9.50
2018-03-17T12:55:20.393Z,10.97
2018-03-17T12:57:48.054Z,10.93
2018-03-17T13:00:15.572Z,11.57
2018-03-17T13:02:43.206Z,11.90
2018-03-17T13:05:11.004Z,9.73
2018-03-17T13:07:39.083Z,11.77
2018-03-17T13:10:06.801Z,12.50
2018-03-17T13:12:34.379Z,11.50
2018-03-17T13:15:01.921Z,10.13
2018-03-17T13:17:29.727Z,10.70
2018-03-17T13:19:57.464Z,9.60
2018-03-17T13:22:25.053Z,10.60
2018-03-17T13:24:52.615Z,11.07
2018-03-17T13:27:32.131Z,10.67
2018-03-17T13:29:59.723Z,9.23
2018-03-17T13:32:39.322Z,10.53
2018-03-17T13:35:07.305Z,10.30
2018-03-17T13:37:38.484Z,10.60
2018-03-17T13:40:17.995Z,11.20
2018-03-17T13:42:45.734Z,10.87
2018-03-17T13:45:15.090Z,9.90
2018-03-17T13:47:42.721Z,9.67
2018-03-17T13:50:10.539Z,10.40
2018-03-17T13:52:38.211Z,11.57
2018-03-17T13:55:06.244Z,9.77
2018-03-17T13:57:34.045Z,10.87
2018-03-17T14:00:02.202Z,10.50
2018-03-17T14:02:29.872Z,11.87
2018-03-17T14:04:58.544Z,10.83
2018-03-17T14:07:26.702Z,11.00
2018-03-17T14:09:54.393Z,9.90
2018-03-17T14:12:22.277Z,10.80
2018-03-17T14:14:50.145Z,9.87
2018-03-17T14:17:17.735Z,11.10
2018-03-17T14:19:45.280Z,10.90
2018-03-17T14:22:12.857Z,9.90
2018-03-17T14:24:40.427Z,10.93
2018-03-17T14:27:08.011Z,10.60
2018-03-17T14:29:35.994Z,11.97
2018-03-17T14:32:04.798Z,11.30
2018-03-17T14:34:32.835Z,9.63
2018-03-17T14:37:00.500Z,9.23
2018-03-17T14:39:28.279Z,11.37
2018-03-17T14:41:55.890Z,10.83
2018-03-17T14:44:23.674Z,10.93
2018-03-17T14:46:51.513Z,11.50
2018-03-17T14:49:19.153Z,11.23
2018-03-17T14:51:47.178Z,10.53
2018-03-17T14:54:14.893Z,10.77
2018-03-17T14:56:43.027Z,11.63
2018-03-17T14:59:12.881Z,10.97
2018-03-17T15:01:40.612Z,11.23
2018-03-17T15:04:08.138Z,11.30
2018-03-17T15:06:36.141Z,12.53
2018-03-17T15:09:03.909Z,10.50
2018-03-17T15:11:31.422Z,10.37
2018-03-17T15:13:59.008Z,11.63
2018-03-17T15:16:26.588Z,11.13
2018-03-17T15:18:54.160Z,11.63
2018-03-17T15:21:21.775Z,11.30
2018-03-17T15:23:49.393Z,10.63
2018-03-17T15:26:17.006Z,11.90
2018-03-17T15:28:44.572Z,12.40
2018-03-17T15:31:12.194Z,11.00
2018-03-17T15:33:39.767Z,10.50
2018-03-17T15:36:07.371Z,11.60
2018-03-17T15:38:35.593Z,10.93
2018-03-17T15:41:04.034Z,11.40
2018-03-17T15:43:31.565Z,10.70
2018-03-17T15:45:59.635Z,11.07
2018-03-17T15:48:27.371Z,12.67
2018-03-17T15:50:56.152Z,12.20
2018-03-17T15:53:23.800Z,11.60
2018-03-17T15:55:51.881Z,11.03
2018-03-17T15:58:20.208Z,11.00
2018-03-17T16:00:48.202Z,11.70
2018-03-17T16:03:15.809Z,11.20
2018-03-17T16:05:43.421Z,12.70
2018-03-17T16:08:11.198Z,11.10
2018-03-17T16:10:38.832Z,11.50
2018-03-17T16:13:06.578Z,11.83
2018-03-17T16:15:34.521Z,11.13
2018-03-17T16:18:02.121Z,11.53
2018-03-17T16:20:29.804Z,11.10
2018-03-17T16:22:57.516Z,12.40
2018-03-17T16:25:25.259Z,11.70
2018-03-17T16:27:52.913Z,10.90
2018-03-17T16:30:20.614Z,11.73
2018-03-17T16:32:48.330Z,12.43
2018-03-17T16:35:17.559Z,11.50
2018-03-17T16:37:47.692Z,11.17
2018-03-17T16:40:15.230Z,11.17
2018-03-17T16:42:42.776Z,11.40
2018-03-17T16:45:10.415Z,11.80
2018-03-17T16:47:37.985Z,10.83
2018-03-17T16:50:05.740Z,10.90
2018-03-17T16:52:33.463Z,10.87
2018-03-17T16:55:01.207Z,11.60
2018-03-17T16:57:29.344Z,12.00
2018-03-17T16:59:56.964Z,11.13
2018-03-17T17:02:24.635Z,11.53
2018-03-17T17:04:52.266Z,10.63
2018-03-17T17:07:20.365Z,10.77
2018-03-17T17:09:49.425Z,12.33
2018-03-17T17:12:17.055Z,11.47
2018-03-17T17:14:45.835Z,11.63
2018-03-17T17:17:13.867Z,10.83
2018-03-17T17:19:41.977Z,12.23
2018-03-17T17:22:09.627Z,10.83
2018-03-17T17:24:37.871Z,10.47
2018-03-17T17:27:05.703Z,11.00
2018-03-17T17:29:33.526Z,11.37
2018-03-17T17:32:01.254Z,10.97
2018-03-17T17:34:28.805Z,12.10
2018-03-17T17:36:56.390Z,11.40
2018-03-17T17:39:23.978Z,11.40
2018-03-17T17:41:51.803Z,11.30
2018-03-17T17:44:21.180Z,11.80
2018-03-17T17:46:49.186Z,10.30
2018-03-17T17:49:16.800Z,12.50
2018-03-17T17:51:45.067Z,11.17
2018-03-17T17:54:12.755Z,11.03
2018-03-17T17:56:40.734Z,12.97
2018-03-17T17:59:08.735Z,10.93
2018-03-17T18:01:36.430Z,11.47
2018-03-17T18:04:04.061Z,11.50
2018-03-17T18:06:31.708Z,11.30
2018-03-17T18:08:59.713Z,12.10
2018-03-17T18:11:27.380Z,11.37
2018-03-17T18:13:55.041Z,12.07
2018-03-17T18:16:23.639Z,13.23
2018-03-17T18:18:51.414Z,11.33
2018-03-17T18:21:19.046Z,10.87
2018-03-17T18:23:46.629Z,11.40
2018-03-17T18:26:14.352Z,10.90
2018-03-17T18:28:41.953Z,11.13
2018-03-17T18:31:12.824Z,10.57
2018-03-17T18:33:40.354Z,11.10
2018-03-17T18:36:08.253Z,10.57
2018-03-17T18:38:35.939Z,10.90
2018-03-17T18:41:03.580Z,11.37
2018-03-17T18:43:31.520Z,10.50
2018-03-17T18:45:59.620Z,10.17
2018-03-17T18:48:27.961Z,10.47
2018-03-17T18:50:56.119Z,9.40
2018-03-17T18:53:23.976Z,10.47
2018-03-17T18:55:51.620Z,9.77
2018-03-17T18:58:19.326Z,10.07
2018-03-17T19:00:47.538Z,10.50
2018-03-17T19:03:15.571Z,10.10
2018-03-17T19:05:43.438Z,9.93
2018-03-17T19:08:11.900Z,11.07
2018-03-17T19:10:39.656Z,11.50
2018-03-17T19:13:07.366Z,10.57
2018-03-17T19:15:35.106Z,10.67
2018-03-17T19:18:02.991Z,9.83
2018-03-17T19:20:30.634Z,10.63
2018-03-17T19:22:59.228Z,10.00
2018-03-17T19:25:27.106Z,9.97
2018-03-17T19:27:57.551Z,10.93
2018-03-17T19:30:25.486Z,11.10
2018-03-17T19:32:53.448Z,10.17
2018-03-17T19:35:21.239Z,9.83
2018-03-17T19:37:48.875Z,10.60
2018-03-17T19:40:16.878Z,10.33
2018-03-17T19:42:44.521Z,10.60
2018-03-17T19:45:12.370Z,10.93
2018-03-17T19:47:40.022Z,11.43
2018-03-17T19:50:08.004Z,11.10
2018-03-17T19:52:35.698Z,11.60
2018-03-17T19:55:03.553Z,12.20
2018-03-17T19:57:31.725Z,9.80
2018-03-17T19:59:59.429Z,11.37
2018-03-17T20:02:27.201Z,10.93
2018-03-17T20:04:55.196Z,11.47
2018-03-17T20:07:22.947Z,11.13
2018-03-17T20:09:51.069Z,9.93
2018-03-17T20:12:19.941Z,11.30
2018-03-17T20:14:48.232Z,10.97
2018-03-17T20:17:16.208Z,12.77
2018-03-17T20:19:43.951Z,12.07
2018-03-17T20:22:11.934Z,12.20
2018-03-17T20:24:40.396Z,10.13
2018-03-17T20:27:08.053Z,12.30
2018-03-17T20:29:35.804Z,11.33
2018-03-17T20:32:03.865Z,10.43
2018-03-17T20:34:32.115Z,11.43
2018-03-17T20:36:59.812Z,11.37
2018-03-17T20:39:27.828Z,11.20
2018-03-17T20:41:55.583Z,10.77
2018-03-17T20:44:23.367Z,11.10
2018-03-17T20:46:50.959Z,11.20
2018-03-17T20:49:18.805Z,12.20
2018-03-17T20:51:46.658Z,12.07
2018-03-17T20:54:14.314Z,12.23
2018-03-17T20:56:43.232Z,12.10
2018-03-17T20:59:10.921Z,11.80
2018-03-17T21:01:38.570Z,10.67
2018-03-17T21:04:06.746Z,11.57
2018-03-17T21:06:34.508Z,11.07
2018-03-17T21:09:03.169Z,11.83
2018-03-17T21:11:31.270Z,12.23
2018-03-17T21:13:58.868Z,11.93
2018-03-17T21:16:26.430Z,12.20
2018-03-17T21:18:54.235Z,12.20
2018-03-17T21:21:22.201Z,12.73
2018-03-17T21:23:50.024Z,11.00
2018-03-17T21:26:17.709Z,11.10
2018-03-17T21:28:45.566Z,12.53
2018-03-17T21:31:13.184Z,13.27
2018-03-17T21:33:40.754Z,12.20
2018-03-17T21:36:08.659Z,13.40
2018-03-17T21:38:36.232Z,11.70
2018-03-17T21:41:03.779Z,12.50
2018-03-17T21:43:31.446Z,13.17
2018-03-17T21:45:59.021Z,12.10
2018-03-17T21:48:27.216Z,13.80
2018-03-17T21:50:54.921Z,12.70
2018-03-17T21:53:22.929Z,12.33
2018-03-17T21:55:50.521Z,11.90
2018-03-17T21:58:18.052Z,11.40
2018-03-17T22:00:45.654Z,11.97
2018-03-17T22:03:13.212Z,11.80
2018-03-17T22:05:40.875Z,12.43
2018-03-17T22:08:08.501Z,12.03
2018-03-17T22:10:36.075Z,12.70
2018-03-17T22:13:03.636Z,12.13
2018-03-17T22:15:31.463Z,11.67
2018-03-17T22:17:59.139Z,11.77
2018-03-17T22:20:26.741Z,12.00
2018-03-17T22:22:54.262Z,11.40
2018-03-17T22:25:21.851Z,13.50
2018-03-17T22:27:49.790Z,12.60
2018-03-17T22:30:17.416Z,13.93
2018-03-17T22:32:44.939Z,13.33
2018-03-17T22:35:12.932Z,11.60
2018-03-17T22:37:40.482Z,11.67
2018-03-17T22:40:08.436Z,12.53
2018-03-17T22:42:35.962Z,14.10
2018-03-17T22:45:03.497Z,13.73
2018-03-17T22:47:31.460Z,13.13
2018-03-17T22:49:59.426Z,12.60
2018-03-17T22:52:27.334Z,14.30
2018-03-17T22:54:54.854Z,12.67
2018-03-17T22:57:22.383Z,13.13
2018-03-17T22:59:49.949Z,13.20
2018-03-17T23:02:17.469Z,13.30
2018-03-17T23:04:45.010Z,12.40
2018-03-17T23:07:12.989Z,12.90
2018-03-17T23:09:40.954Z,13.40
2018-03-17T23:12:08.894Z,11.60
2018-03-17T23:14:36.436Z,13.63
2018-03-17T23:17:04.375Z,13.20
2018-03-17T23:19:32.343Z,13.07
2018-03-17T23:22:00.294Z,12.13
2018-03-17T23:24:27.830Z,13.10
2018-03-17T23:26:55.323Z,14.80
2018-03-17T23:29:23.999Z,12.30
2018-03-17T23:31:51.517Z,12.60
2018-03-17T23:34:19.297Z,11.33
2018-03-17T23:36:46.828Z,13.00
2018-03-17T23:39:14.762Z,13.37
2018-03-17T23:41:42.297Z,13.97
2018-03-17T23:44:09.841Z,13.97
2018-03-17T23:46:37.789Z,12.50
2018-03-17T23:49:05.301Z,13.87
2018-03-17T23:51:32.861Z,12.87
2018-03-17T23:54:00.350Z,16.17
2018-03-17T23:56:27.874Z,13.40
2018-03-17T23:58:55.413Z,13.90
